New England District Corps of Engineers
River Gages
May 29, 2024 06:11 PM
Legend: Warning Stage Flood Stage
Gage Drainage
Area
( mi2 )
Date/Time Stage
(ft)
Q
(cfs)
6 Hour
Change
Stage (ft)
6 Hour
Change
Flow (cfs)
CSM
Q/DA
Warning
Flow
Warning
Stage
Flood
Flow
Flood
Stage
UPPER CONNECTICUT RIVER BASIN
Basin Regulator: Jeremy Kellett
Connecticut River @ Wells River, Vt 2644 29 MAY 05:30 pm 3.71 4,058 -.04 -112 1.5 19700 7.5 44500 13
Connecticut River @ West Lebanon, Nh 4092 29 MAY 05:30 pm 6.89 6,465 .02 49 1.6 29200 14 64200 22
White River @ West Hartford, Vt 690 29 MAY 05:30 pm 4.19 756 -.10 -67 1.1 9910 10 36100 18
Ottauquechee River @ West Bridgewater, Vt 23 29 MAY 05:30 pm 3.34 27 -.04 -4 1.2 n/a n/a n/a n/a
Connecticut River @ North Walpole, Nh 5493 29 MAY 05:30 pm 9.59 8,013 .00 0 1.5 65100 24 92800 30
Ashuelot River Near Gilsum, Nh 71.1 29 MAY 05:30 pm 2.98 97 -.06 -7 1.4 n/a n/a n/a n/a
Minnewawa Brook @ Marlborough, Nh 32 29 MAY 06:00 pm .17 n/a -.02 n/a n/a n/a 8 n/a 10
Ashuelot River @ Keene, Nh 114 29 MAY 05:30 pm 65.84 166 -.02 6 1.5 n/a 71.5 n/a 73
Ashuelot River @ West Swanzey, Nh 316 29 MAY 05:45 pm 6.53 391 -.04 -17 1.2 2920 10 3850 11
Ashuelot River @ Hinsdale, Nh 420 29 MAY 05:45 pm 4.40 561 -.04 -24 1.3 6170 8 9360 9
LOWER CONNECTICUT RIVER BASIN
Basin Regulator: Peter Upham
Millers River @ Winchendon, Ma 82 29 MAY 05:00 pm 4.49 96 -.03 -5 1.2 n/a n/a n/a n/a
Priest Brook @ Winchendon, Ma 19 29 MAY 05:45 pm 3.09 41 -.01 -1 2.2 n/a n/a n/a n/a
Millers River @ South Royalston, Ma 189 29 MAY 05:30 pm 5.13 371 -.03 -13 2.0 n/a n/a n/a n/a
Millers River @ Athol, Ma 280 29 MAY 05:30 pm -2.98 398 -.03 -8 1.4 n/a 2.5 n/a 3.3
Millers River @ Erving, Ma 372 29 MAY 05:00 pm 2.96 551 -.03 -22 1.5 n/a n/a 4640 6.4
Connecticut River @ Montague City, Ma 7865 29 MAY 05:30 pm 11.58 13,190 -.06 -170 1.7 64200 25 89700 30
Deerfield River @ West Deerfield, Ma 558 29 MAY 05:30 pm 2.35 383 -.68 -618 .7 10500 7 14200 8
Connecticut River @ Holyoke, Ma 8309 29 MAY 05:30 pm 9.00 14,509 -.07 -200 1.7 73900 22 100643 26.5
Ware River @ Barre Plains, Ma 115 29 MAY 06:00 pm .67 147 -.04 -6 1.3 500 2.5 980 4
Ware River @ Gibbs Crossing, Ma 199 29 MAY 05:30 pm 2.86 277 -.09 -47 1.4 2030 5 2420 5.5
Chicopee River @ Indian Orchard, Ma 688 29 MAY 05:30 pm 5.44 963 -.02 -17 1.4 6520 10 10200 12
WB, Westfield River @ Huntington, Ma 94 29 MAY 05:30 pm 3.75 79 -.05 -8 .8 2940 7.5 5560 9
Westfield River @ Westfield, Ma 497 29 MAY 05:30 pm 4.67 751 -.08 -50 1.5 4000 8 11700 13
Connecticut River @ Thompsonville, Ct 9661 29 MAY 05:30 pm 9.49 17,078 .06 522 1.8 74800 14.5 153147 19.2
Farmington River @ New Boston, Ma 92 29 MAY 05:30 pm 2.81 77 -.03 -4 .8 1690 5.9 3700 7.5
Still River @ Robertsville, Ct 85 29 MAY 05:30 pm 2.28 109 -.02 -3 1.3 n/a n/a n/a n/a
Farmington River @ Riverton, Ct 131 29 MAY 05:30 pm 4.10 238 .00 0 1.8 1500 6.5 3010 8.1
Farmington River @ Unionville, Ct 378 29 MAY 05:30 pm 5.75 564 .00 0 1.5 3650 9 8710 12
Farmington River @ Simsbury, Ct 497 29 MAY 05:30 pm 3.12 656 -.19 -52 1.3 1870 6 6410 12
Connecticut River @ Hartford, Ct 10480 29 MAY 05:30 pm 4.13 12,390 -.35 -1,050 1.2 n/a 16 n/a 22
MERRIMACK RIVER BASIN
Basin Regulator: Laura Fraser
E.B. Pemigewasset River @ Lincoln, Nh 115 29 MAY 05:15 pm 4.75 371 -.05 -18 3.2 n/a n/a n/a n/a
Pemigewasset River @ Woodstock, Nh 193 29 MAY 05:30 pm 3.39 537 -.09 -52 2.8 4830 7 9750 9
Pemigewasset River @ Plymouth, Nh 622 29 MAY 05:30 pm 1.89 1,347 -.13 -170 2.2 9510 8 19500 13
Baker River @ Rumney, Nh 143 29 MAY 05:30 pm 1.06 146 -.05 -13 1.0 2850 5.3 7080 9.8
Smith River @ Bristol, Nh 86 29 MAY 05:30 pm 2.84 105 -.11 -15 1.2 1540 6.5 2380 8
Winnipesaukee River @ Tilton, Nh 471 29 MAY 05:30 pm 2.68 322 -.01 -3 .7 3020 7 3460 7.5
Merrimack River @ Franklin Jct, Nh 1507 29 MAY 05:30 pm 6.03 2,953 -.16 -233 2.0 15900 13 18100 14
Merrimack River @ Concord, Nh 2385 29 MAY 05:30 pm 4.53 4,560 .03 60 1.9 n/a 10 n/a 13.7
Merrimack River @ Goffs Falls, Nh 3092 29 MAY 05:30 pm 5.12 4,857 .10 263 1.6 36400 12 46200 14
Merrimack River @ Nashua, Nh 3982 29 MAY 05:30 pm 5.34 n/a .07 n/a n/a n/a 16 n/a 18
Merrimack River @ Lowell, Ma 4635 29 MAY 05:30 pm 44.00 7,518 .18 597 1.6 28500 49 45100 52
Merrimack River @ Haverhill, Ma 4900 29 MAY 05:15 pm 4.73 n/a 1.86 n/a n/a n/a n/a n/a n/a
Contoocook River @ Peterborough, Nh 68 29 MAY 05:45 pm 1.79 89 -.03 -5 1.3 660 3.5 2680 6
Contoocook River @ Henniker, Nh 368 29 MAY 05:30 pm 5.98 333 -.20 -60 .9 2050 9 5750 11.5
Contoocook River @ Riverhill, Nh 760 29 MAY 05:30 pm 10.43 216 .04 20 .3 n/a 14.7 n/a 18
Warner River @ Davisville, Nh 146 29 MAY 05:30 pm 4.39 186 -.05 -12 1.3 1120 6.5 2310 8
Piscataquog River @ Goffstown, Nh 202 29 MAY 05:30 pm 4.17 198 .04 10 1.0 1180 6 3660 8.5
Souhegan River @ Souhegan, Nh 171 29 MAY 05:45 pm 3.10 198 -.03 -8 1.2 2260 6.5 5000 9
Nashua River @ East Pepperell, Ma 316 29 MAY 05:30 pm 2.93 860 -.03 -16 2.7 2990 6.5 4080 8
Concord River @ Lowell, Ma 400 29 MAY 05:30 pm 5.44 680 .00 0 1.7 2580 7.5 3190 8
Shawsheen River @ Wilmington, Ma 37 29 MAY 05:30 pm 2.71 62 -.02 -2 1.7 270 5 620 7
Spicket River @ Methuen, Ma 62 29 MAY 05:30 pm 3.73 35 -.10 -12 .6 n/a 6.5 n/a 8
NAUGATUCK RIVER BASIN
Basin Regulator: Laura Fraser
Naugatuck River @ Waterbury, Ct 174 29 MAY 05:30 pm 7.03 121 -.31 -108 .7 2190 10 5250 12.8
Naugatuck River @ Beacon Falls, Ct 259 29 MAY 06:00 pm 2.32 399 -.18 -67 1.5 3990 7 9950 10.7
Housatonic River @ Stevenson, Ct 1545 29 MAY 05:30 pm 5.73 2,985 2.97 2,421 1.9 13700 11 27200 15
THAMES RIVER BASIN
Basin Regulator: Stephen Kissock, P.E.
French River @ Webster, Ma 85 29 MAY 05:30 pm 5.66 228 .00 0 2.7 580 6.9 1000 8.4
Quinebaug River @ Quinebaug, Ct 155 29 MAY 06:00 pm 3.13 284 -.01 -5 1.8 2570 6 n/a n/a
Quinebaug River @ Putnam, Ct 331 29 MAY 05:30 pm 3.79 608 -.03 -16 1.8 3440 7.5 5730 9.5
Quinebaug River @ Jewett City, Ct 715 29 MAY 05:30 pm 7.45 1,723 -.10 -70 2.4 7730 13.4 14100 17.5
Mt. Hope River @ Warrenville, Ct 29 29 MAY 05:15 pm 1.80 43 -.04 -3 1.5 810 6 1230 7
Fenton River @ Mansfield, Ct 18 29 MAY 05:15 pm 3.58 22 -.02 -1 1.2 n/a n/a n/a n/a
Natchaug River @ Chaplin, Ct 68 29 MAY 06:00 pm 3.19 109 -.04 -7 1.6 n/a n/a n/a n/a
Chapin Brook @ Dike B, Mansfield H., Ct 2.3 29 MAY 07:30 pm 27.24 n/a .00 n/a n/a n/a 32 n/a 35
Willimantic River @ Coventry, Ct 121 29 MAY 05:15 pm 3.50 174 -.05 -10 1.4 1310 6.5 2740 9
Shetucket River @ Willimantic, Ct 401 29 MAY 05:30 pm 3.67 826 -.47 -283 2.1 3920 7.5 8860 11.3
BLACKSTONE RIVER BASIN
Basin Regulator: Stephen Kissock, P.E.
Blackstone River @ Millbury, Ma 71 29 MAY 06:00 pm 2.35 204 -.03 -8 2.9 820 4 1970 6.5
Blackstone River @ Northbridge, Ma 139 29 MAY 05:30 pm 4.06 n/a -.03 n/a n/a 1110 5.8 3100 9
Blackstone River @ Uxbridge, Ma 244 29 MAY 06:00 pm 8.21 482 -.11 -36 2.0 2320 13 5660 17.5
Branch River @ Forestdale, Ri 91.2 29 MAY 05:15 pm 3.03 179 -.07 -16 2.0 n/a n/a n/a n/a
Blackstone River @ Woonsocket, Ri 416 29 MAY 05:30 pm 2.78 843 -.16 -86 2.0 4400 7 6670 9